Time;durP1;ratioP1;P1;durP2;ratioP2;P2;SDS_P1;SDS_P2;PMS_P1;PMS_P2;Temp;Humidity;BMP_temperature;BMP_pressure;BME280_temperature;BME280_humidity;BME280_pressure;Samples;Min_cycle;Max_cycle;Signal;HPM_P1;HPM_P2
2022/04/01 00:01:58;;;;;;;2.80;2.57;;;1.50;99.90;;;;;;5002439;28;20081;-53
2022/04/01 00:04:24;;;;;;;5.78;2.08;;;1.50;99.90;;;;;;4994166;28;20039;-51
2022/04/01 00:06:49;;;;;;;1.83;1.73;;;1.50;99.90;;;;;;5002179;28;20092;-48
2022/04/01 00:09:15;;;;;;;3.63;2.07;;;1.50;99.90;;;;;;5013576;28;20034;-50
2022/04/01 00:11:40;;;;;;;3.70;1.63;;;1.50;99.90;;;;;;4995499;28;20396;-49
2022/04/01 00:14:06;;;;;;;4.87;1.90;;;1.50;99.90;;;;;;5009334;28;20044;-49
2022/04/01 00:16:31;;;;;;;3.07;2.53;;;1.50;99.90;;;;;;5012709;28;20073;-50
2022/04/01 00:18:57;;;;;;;3.60;1.90;;;1.40;99.90;;;;;;4994693;28;20038;-50
2022/04/01 00:21:23;;;;;;;2.78;1.85;;;1.40;99.90;;;;;;4999173;28;20046;-49
2022/04/01 00:23:49;;;;;;;5.93;1.75;;;1.40;99.90;;;;;;4999654;28;20567;-49
2022/04/01 00:26:14;;;;;;;3.80;2.30;;;1.30;99.90;;;;;;4996958;28;20034;-51
2022/04/01 00:28:40;;;;;;;4.60;2.27;;;1.30;99.90;;;;;;5009573;28;20034;-49
2022/04/01 00:31:06;;;;;;;3.40;1.77;;;1.30;99.90;;;;;;4993270;28;20034;-49
2022/04/01 00:33:31;;;;;;;4.10;1.93;;;1.30;99.90;;;;;;5001524;28;20133;-50
2022/04/01 00:35:57;;;;;;;1.73;1.63;;;1.30;99.90;;;;;;5012979;28;20391;-50
2022/04/01 00:38:24;;;;;;;1.90;1.80;;;1.30;99.90;;;;;;5006562;28;20049;-49
2022/04/01 00:40:51;;;;;;;1.85;1.75;;;1.30;99.90;;;;;;4994186;28;20121;-49
2022/04/01 00:43:25;;;;;;;4.07;2.40;;;1.30;99.90;;;;;;5011328;28;20045;-51
2022/04/01 00:45:50;;;;;;;2.75;1.73;;;1.30;99.90;;;;;;5011807;28;20052;-49
2022/04/01 00:48:17;;;;;;;3.57;2.40;;;1.30;99.90;;;;;;4993355;28;20034;-49
2022/04/01 00:50:43;;;;;;;;;;;1.30;99.90;;;;;;5001941;28;20073;-49
2022/04/01 00:53:08;;;;;;;2.85;2.03;;;1.30;99.90;;;;;;5012220;28;20382;-49
2022/04/01 00:55:34;;;;;;;3.67;2.70;;;1.30;99.90;;;;;;4996883;28;20077;-49
2022/04/01 00:58:01;;;;;;;2.30;2.08;;;1.30;99.90;;;;;;4992764;28;20539;-51
2022/04/01 01:00:28;;;;;;;4.00;1.63;;;1.30;99.90;;;;;;5007757;28;20037;-51
2022/04/01 01:02:54;;;;;;;2.42;1.88;;;1.30;99.90;;;;;;5011121;28;20105;-49
2022/04/01 01:05:20;;;;;;;2.47;2.10;;;1.30;99.90;;;;;;4991401;28;20047;-49
2022/04/01 01:07:48;;;;;;;4.88;2.25;;;1.30;99.90;;;;;;4992943;28;20471;-49
2022/04/01 01:10:16;;;;;;;4.72;1.63;;;1.30;99.90;;;;;;5011092;28;20037;-49
2022/04/01 01:12:43;;;;;;;5.18;1.60;;;1.20;99.90;;;;;;5010579;28;20046;-49
2022/04/01 01:15:14;;;;;;;2.40;1.50;;;1.20;99.90;;;;;;5011263;28;20389;-49
2022/04/01 01:17:40;;;;;;;2.72;1.45;;;1.20;99.90;;;;;;5012092;28;20041;-49
2022/04/01 01:20:15;;;;;;;3.05;1.80;;;1.20;99.90;;;;;;4997046;28;20561;-49
2022/04/01 01:22:49;;;;;;;8.10;1.65;;;1.20;99.90;;;;;;5012438;28;20547;-49
2022/04/01 01:25:16;;;;;;;2.45;1.20;;;1.20;99.90;;;;;;5011555;28;20120;-50
2022/04/01 01:27:43;;;;;;;3.75;1.20;;;1.20;99.90;;;;;;5004194;28;20109;-49
2022/04/01 01:30:10;;;;;;;4.30;1.65;;;1.20;99.90;;;;;;4991915;28;20042;-52
2022/04/01 01:32:36;;;;;;;2.03;0.88;;;1.20;99.90;;;;;;4993800;28;20038;-51
2022/04/01 01:35:08;;;;;;;1.95;1.40;;;1.10;99.90;;;;;;4992509;28;20041;-50
2022/04/01 01:37:33;;;;;;;4.13;1.00;;;1.20;99.90;;;;;;4997330;28;20034;-49
2022/04/01 01:39:59;;;;;;;3.10;1.47;;;1.10;99.90;;;;;;5012571;28;20565;-49
2022/04/01 01:42:24;;;;;;;3.07;1.20;;;1.10;99.90;;;;;;4998419;28;20109;-50
2022/04/01 01:44:50;;;;;;;5.80;1.33;;;1.10;99.90;;;;;;4993318;28;20121;-53
2022/04/01 01:47:16;;;;;;;2.70;1.57;;;1.20;99.90;;;;;;5004405;28;20355;-49
2022/04/01 01:55:11;;;;;;;2.90;1.15;;;1.10;99.90;;;;;;4996030;28;20080;-50
2022/04/01 01:57:36;;;;;;;3.22;1.50;;;1.10;99.90;;;;;;5012284;28;20050;-49
2022/04/01 02:00:10;;;;;;;3.47;1.85;;;1.10;99.90;;;;;;5009318;28;20081;-52
2022/04/01 02:02:39;;;;;;;1.63;0.88;;;1.10;99.90;;;;;;5011455;28;20558;-53
2022/04/01 02:05:06;;;;;;;2.67;0.73;;;1.10;99.90;;;;;;4993459;28;20073;-50
2022/04/01 02:07:32;;;;;;;2.47;1.10;;;1.10;99.90;;;;;;4992244;28;20038;-49
2022/04/01 02:09:57;;;;;;;2.73;1.33;;;1.10;99.90;;;;;;5007229;28;20115;-51
2022/04/01 02:12:23;;;;;;;3.80;1.40;;;1.10;99.90;;;;;;5005804;28;20285;-50
2022/04/01 02:14:48;;;;;;;3.30;1.30;;;1.00;99.90;;;;;;5006647;28;20042;-50
2022/04/01 02:17:14;;;;;;;2.20;1.10;;;1.10;99.90;;;;;;4991670;28;20496;-49
2022/04/01 02:19:40;;;;;;;2.10;1.33;;;1.10;99.90;;;;;;4991468;28;20389;-51
2022/04/01 02:22:07;;;;;;;1.38;1.00;;;1.10;99.90;;;;;;5009801;28;20124;-52
2022/04/01 02:24:33;;;;;;;5.43;1.60;;;1.10;99.90;;;;;;4999079;28;20046;-49
2022/04/01 02:26:59;;;;;;;2.28;1.30;;;1.10;99.90;;;;;;4991127;28;20030;-48
2022/04/01 02:29:25;;;;;;;1.85;1.27;;;1.10;99.90;;;;;;5004239;28;20046;-49
2022/04/01 02:31:52;;;;;;;2.43;1.33;;;1.10;99.90;;;;;;5003252;28;20602;-50
2022/04/01 02:34:23;;;;;;;3.85;1.55;;;1.10;99.90;;;;;;5007288;28;20048;-51
2022/04/01 02:36:49;;;;;;;8.77;1.77;;;1.10;99.90;;;;;;5010465;28;20518;-49
2022/04/01 02:39:15;;;;;;;4.70;1.33;;;1.10;99.90;;;;;;4999759;28;20132;-49
2022/04/01 02:41:41;;;;;;;2.33;1.37;;;1.10;99.90;;;;;;4990733;28;20050;-48
2022/04/01 02:44:09;;;;;;;3.60;1.63;;;1.10;99.90;;;;;;5002098;28;20476;-49
2022/04/01 02:46:43;;;;;;;1.73;0.98;;;1.10;99.90;;;;;;4990512;28;20519;-49
2022/04/01 02:49:15;;;;;;;7.60;1.38;;;1.10;99.90;;;;;;5009022;28;20581;-49
2022/04/01 02:51:42;;;;;;;2.75;1.10;;;1.00;99.90;;;;;;5010448;28;20565;-49
2022/04/01 02:54:09;;;;;;;2.28;1.23;;;1.00;99.90;;;;;;4997141;28;20054;-49
2022/04/01 02:56:36;;;;;;;3.88;1.20;;;1.00;99.90;;;;;;5003512;28;20046;-48
2022/04/01 02:59:07;;;;;;;5.05;1.13;;;1.00;99.90;;;;;;4993817;28;20029;-49
2022/04/01 03:01:34;;;;;;;3.58;1.08;;;1.00;99.90;;;;;;5010191;28;20380;-49
2022/04/01 03:03:59;;;;;;;2.60;1.45;;;1.00;99.90;;;;;;4992610;28;20069;-51
2022/04/01 03:06:25;;;;;;;1.27;1.13;;;1.00;99.90;;;;;;4990062;28;20038;-50
2022/04/01 03:08:51;;;;;;;3.10;1.20;;;1.00;99.90;;;;;;5006366;28;20070;-48
2022/04/01 03:11:17;;;;;;;1.33;1.10;;;1.00;99.90;;;;;;5008996;28;20132;-50
2022/04/01 03:13:43;;;;;;;;;;;1.00;99.90;;;;;;4996251;28;20522;-49
2022/04/01 03:16:09;;;;;;;1.17;0.98;;;1.00;99.90;;;;;;4992897;28;19925;-49
2022/04/01 03:18:40;;;;;;;1.55;0.95;;;1.00;99.90;;;;;;5010176;28;20498;-48
2022/04/01 03:21:12;;;;;;;1.55;1.17;;;1.00;99.90;;;;;;5008275;28;20041;-49
2022/04/01 03:23:43;;;;;;;4.40;1.23;;;1.00;99.90;;;;;;5007001;28;20108;-50
2022/04/01 03:26:09;;;;;;;3.78;1.30;;;1.00;99.90;;;;;;4989416;28;20050;-48
2022/04/01 03:28:35;;;;;;;6.43;1.00;;;1.00;99.90;;;;;;4996147;28;20030;-49
2022/04/01 03:31:04;;;;;;;2.85;1.17;;;1.00;99.90;;;;;;5012767;28;20304;-50
2022/04/01 03:33:33;;;;;;;1.30;0.82;;;1.00;99.90;;;;;;5000529;28;20096;-49
2022/04/01 03:36:00;;;;;;;2.50;0.90;;;1.00;99.90;;;;;;4994528;28;20070;-49
2022/04/01 03:38:26;;;;;;;5.50;1.13;;;1.00;99.90;;;;;;5006709;28;20045;-50
2022/04/01 03:40:52;;;;;;;3.10;0.95;;;1.00;99.90;;;;;;5013601;28;20041;-49
2022/04/01 03:43:22;;;;;;;6.13;0.95;;;1.00;99.90;;;;;;4994584;28;20515;-50
2022/04/01 03:45:49;;;;;;;1.42;1.17;;;1.10;99.90;;;;;;5009575;28;20037;-49
2022/04/01 03:48:28;;;;;;;2.95;1.42;;;1.00;99.90;;;;;;5013440;28;20076;-50
2022/04/01 03:50:56;;;;;;;2.55;1.13;;;1.10;99.90;;;;;;4997604;28;20446;-50
2022/04/01 03:53:30;;;;;;;2.47;1.05;;;1.00;99.90;;;;;;5010422;28;20403;-50
2022/04/01 03:55:59;;;;;;;4.10;0.80;;;1.10;99.90;;;;;;4994764;28;20420;-51
2022/04/01 03:58:34;;;;;;;1.65;0.90;;;1.10;99.90;;;;;;4994982;28;20034;-51
2022/04/01 04:01:02;;;;;;;4.45;1.38;;;1.00;99.90;;;;;;5013573;28;20511;-51
2022/04/01 04:03:29;;;;;;;2.25;1.05;;;1.10;99.90;;;;;;5012265;28;20391;-49
2022/04/01 04:05:56;;;;;;;2.67;0.80;;;1.10;99.90;;;;;;5011735;28;20038;-50
2022/04/01 04:08:22;;;;;;;2.60;0.77;;;1.10;99.90;;;;;;4998381;28;20045;-51
2022/04/01 04:10:49;;;;;;;2.45;0.93;;;1.10;99.90;;;;;;4995693;28;20294;-50
2022/04/01 04:13:16;;;;;;;5.93;1.08;;;1.10;99.90;;;;;;5012133;28;20050;-49
2022/04/01 04:16:18;;;;;;;3.60;0.98;;;1.10;99.90;;;;;;4997955;28;20034;-48
2022/04/01 04:19:04;;;;;;;2.97;1.05;;;1.10;99.90;;;;;;4977099;28;20053;-48
2022/04/01 04:21:40;;;;;;;3.90;1.75;;;1.10;99.90;;;;;;4992540;28;20069;-50
2022/04/01 04:24:09;;;;;;;6.10;1.35;;;1.10;99.90;;;;;;4997867;28;20045;-49
2022/04/01 04:26:46;;;;;;;2.00;0.77;;;1.10;99.90;;;;;;5012833;28;20411;-49
2022/04/01 04:29:13;;;;;;;3.20;1.00;;;1.10;99.90;;;;;;5002053;28;20049;-49
2022/04/01 04:31:46;;;;;;;3.17;1.17;;;1.10;99.90;;;;;;4993681;28;20205;-48
2022/04/01 04:34:12;;;;;;;3.45;1.20;;;1.10;99.90;;;;;;5003977;28;20045;-49
2022/04/01 04:36:40;;;;;;;2.63;1.13;;;1.10;99.90;;;;;;5012735;28;20092;-49
2022/04/01 04:39:09;;;;;;;3.20;1.90;;;1.10;99.90;;;;;;5003095;28;20094;-49
2022/04/01 04:41:35;;;;;;;2.67;0.77;;;1.20;99.90;;;;;;4993548;28;20384;-49
2022/04/01 04:44:01;;;;;;;2.13;0.90;;;1.20;99.90;;;;;;4998144;28;20035;-49
2022/04/01 04:46:28;;;;;;;2.97;0.90;;;1.20;99.90;;;;;;4993126;28;20042;-48
2022/04/01 04:48:55;;;;;;;3.70;0.77;;;1.20;99.90;;;;;;4992717;28;20061;-48
2022/04/01 04:51:25;;;;;;;3.15;1.35;;;1.20;99.90;;;;;;4993477;28;20218;-49
2022/04/01 04:53:51;;;;;;;4.53;1.13;;;1.20;99.90;;;;;;5007554;28;20340;-49
2022/04/01 04:56:18;;;;;;;2.65;1.30;;;1.20;99.90;;;;;;5009173;28;20042;-50
2022/04/01 04:58:44;;;;;;;1.98;1.02;;;1.30;99.90;;;;;;4992937;28;20149;-49
2022/04/01 05:01:24;;;;;;;4.00;1.00;;;1.30;99.90;;;;;;4994633;28;20125;-48
2022/04/01 05:04:05;;;;;;;2.95;0.75;;;1.30;99.90;;;;;;5010887;28;20085;-51
2022/04/01 05:06:39;;;;;;;3.80;0.65;;;1.30;99.90;;;;;;5008027;28;20069;-49
2022/04/01 05:09:25;;;;;;;2.20;0.90;;;1.30;99.90;;;;;;4992606;28;20646;-48
2022/04/01 05:11:51;;;;;;;3.17;1.20;;;1.40;99.90;;;;;;4998864;28;20038;-49
2022/04/01 05:14:38;;;;;;;3.20;0.60;;;1.40;99.90;;;;;;5010691;28;20052;-49
2022/04/01 05:17:11;;;;;;;4.07;1.02;;;1.40;99.90;;;;;;4993779;28;20077;-49
2022/04/01 05:19:40;;;;;;;2.08;0.80;;;1.40;99.90;;;;;;4992854;28;20042;-48
2022/04/01 05:22:09;;;;;;;3.80;1.05;;;1.40;99.90;;;;;;5010681;28;20048;-49
2022/04/01 05:24:48;;;;;;;3.53;0.90;;;1.50;99.90;;;;;;5004117;28;20089;-49
2022/04/01 05:27:31;;;;;;;4.93;1.40;;;1.50;99.90;;;;;;4992708;28;20046;-52
2022/04/01 05:30:25;;;;;;;4.47;1.40;;;1.50;99.90;;;;;;5002101;28;20034;-53
2022/04/01 05:33:17;;;;;;;2.47;1.38;;;1.50;99.90;;;;;;5012030;28;20037;-49
2022/04/01 05:35:51;;;;;;;5.72;1.23;;;1.60;99.90;;;;;;5007929;28;20053;-49
2022/04/01 05:38:19;;;;;;;3.92;1.13;;;1.50;99.90;;;;;;5012180;28;20080;-53
2022/04/01 05:40:47;;;;;;;4.72;0.80;;;1.60;99.90;;;;;;5010510;28;20573;-53
2022/04/01 05:43:14;;;;;;;3.13;0.75;;;1.60;99.90;;;;;;5012256;28;20068;-50
2022/04/01 05:45:43;;;;;;;2.42;0.88;;;1.60;99.90;;;;;;5010117;28;20080;-53
2022/04/01 05:48:12;;;;;;;2.58;1.27;;;1.70;99.90;;;;;;5007619;28;20392;-52
2022/04/01 05:50:39;;;;;;;1.42;0.57;;;1.70;99.90;;;;;;5011056;28;20260;-53
2022/04/01 05:53:06;;;;;;;1.40;0.70;;;1.70;99.90;;;;;;5010444;28;20042;-53
2022/04/01 05:55:33;;;;;;;3.15;1.00;;;1.70;99.90;;;;;;5001917;28;20089;-53
2022/04/01 05:58:02;;;;;;;2.40;0.70;;;1.70;99.90;;;;;;5000269;28;20037;-51
2022/04/01 06:00:32;;;;;;;5.25;1.08;;;1.70;99.90;;;;;;5011725;28;20045;-52
2022/04/01 06:03:12;;;;;;;4.32;0.80;;;1.80;99.90;;;;;;5002615;28;20498;-52
2022/04/01 06:05:46;;;;;;;2.60;0.60;;;1.80;99.90;;;;;;4992571;28;20199;-50
2022/04/01 06:08:44;;;;;;;4.38;0.75;;;1.80;99.90;;;;;;4993488;28;20038;-51
2022/04/01 06:11:19;;;;;;;2.35;1.00;;;1.90;99.90;;;;;;5011382;28;20034;-50
2022/04/01 06:14:03;;;;;;;0.95;0.65;;;1.90;99.90;;;;;;5003898;28;20178;-49
2022/04/01 06:16:47;;;;;;;5.35;0.70;;;2.00;99.90;;;;;;5007482;28;20478;-49
2022/04/01 06:19:25;;;;;;;2.50;0.45;;;2.00;99.90;;;;;;5001754;28;20046;-49
2022/04/01 06:22:11;;;;;;;0.68;0.50;;;2.00;99.90;;;;;;4991342;28;20511;-49
2022/04/01 06:24:52;;;;;;;0.63;0.50;;;2.10;99.90;;;;;;4997439;28;20050;-50
2022/04/01 06:27:34;;;;;;;0.77;0.40;;;2.10;99.90;;;;;;5010919;28;20677;-51
2022/04/01 06:30:06;;;;;;;0.88;0.60;;;2.20;99.90;;;;;;5000960;28;20109;-49
2022/04/01 06:32:45;;;;;;;1.58;0.70;;;2.20;99.90;;;;;;5011132;28;20050;-49
2022/04/01 06:35:30;;;;;;;0.63;0.40;;;2.20;99.90;;;;;;4992721;28;20046;-50
2022/04/01 06:38:01;;;;;;;2.30;0.50;;;2.30;99.90;;;;;;4999617;28;20040;-51
2022/04/01 06:40:55;;;;;;;0.82;0.40;;;2.30;99.90;;;;;;5009242;28;20046;-50
2022/04/01 06:43:22;;;;;;;2.22;0.35;;;2.40;99.90;;;;;;5010315;28;20054;-49
2022/04/01 06:45:48;;;;;;;2.92;0.32;;;2.40;99.90;;;;;;4999642;28;20042;-50
2022/04/01 06:48:13;;;;;;;0.80;0.40;;;2.40;99.90;;;;;;4991436;28;20624;-51
2022/04/01 06:50:41;;;;;;;1.23;0.50;;;2.40;99.90;;;;;;4993057;28;20042;-51
2022/04/01 06:53:06;;;;;;;0.77;0.30;;;2.50;99.90;;;;;;4997888;28;20042;-50
2022/04/01 06:55:32;;;;;;;0.23;0.20;;;2.50;99.90;;;;;;5003348;28;20044;-50
2022/04/01 06:57:58;;;;;;;0.97;0.30;;;2.50;99.90;;;;;;5006839;28;20037;-49
2022/04/01 07:00:23;;;;;;;1.53;0.30;;;2.60;99.90;;;;;;4991099;28;20038;-50
2022/04/01 07:02:49;;;;;;;1.00;0.30;;;2.70;99.90;;;;;;4998858;28;20042;-48
2022/04/01 07:05:15;;;;;;;9.47;0.60;;;2.70;99.90;;;;;;5007585;28;20563;-48
2022/04/01 07:07:42;;;;;;;21.87;1.47;;;2.80;99.90;;;;;;4990587;28;20061;-48
2022/04/01 07:10:10;;;;;;;2.70;0.30;;;2.90;99.90;;;;;;4991919;28;20034;-50
2022/04/01 07:12:37;;;;;;;11.73;0.30;;;3.00;99.90;;;;;;4992619;28;20101;-49
2022/04/01 07:15:03;;;;;;;1.25;0.55;;;3.10;99.90;;;;;;4992626;28;20042;-49
2022/04/01 07:17:28;;;;;;;1.05;0.40;;;3.10;99.90;;;;;;4991440;28;20042;-49
2022/04/01 07:19:54;;;;;;;2.17;0.30;;;3.10;99.90;;;;;;5010582;28;20076;-49
2022/04/01 07:22:20;;;;;;;5.23;0.40;;;3.10;99.90;;;;;;4998452;28;20297;-51
2022/04/01 07:24:46;;;;;;;3.40;0.40;;;3.10;99.90;;;;;;4990623;28;20747;-49
2022/04/01 07:27:12;;;;;;;1.13;0.60;;;3.20;99.90;;;;;;5008093;28;20107;-49
2022/04/01 07:29:38;;;;;;;5.23;0.30;;;3.20;99.90;;;;;;5004357;28;20492;-49
2022/04/01 07:34:50;;;;;;;7.00;0.63;;;3.20;99.90;;;;;;4996810;28;20038;-51
2022/04/01 07:37:20;;;;;;;9.10;1.00;;;3.30;99.90;;;;;;5010516;28;20038;-49
2022/04/01 07:39:45;;;;;;;1.10;0.50;;;3.30;99.90;;;;;;5003985;28;20041;-49
2022/04/01 07:42:11;;;;;;;2.13;0.57;;;3.30;99.90;;;;;;4990607;28;20050;-50
2022/04/01 07:44:36;;;;;;;4.60;0.70;;;3.40;99.90;;;;;;4994485;28;20030;-53
2022/04/01 07:47:02;;;;;;;5.17;0.70;;;3.40;99.90;;;;;;5010306;28;20081;-49
2022/04/01 07:49:29;;;;;;;2.38;0.50;;;3.40;99.90;;;;;;5002533;28;20499;-52
2022/04/01 07:51:55;;;;;;;1.38;0.70;;;3.40;99.90;;;;;;4992988;28;20030;-52
2022/04/01 07:54:20;;;;;;;3.87;0.80;;;3.40;99.90;;;;;;4990702;28;20142;-53
2022/04/01 07:56:46;;;;;;;4.87;1.07;;;3.40;99.90;;;;;;4991307;28;20048;-49
2022/04/01 07:59:15;;;;;;;1.97;0.80;;;3.40;99.90;;;;;;4999300;28;20042;-49
2022/04/01 08:01:41;;;;;;;1.80;0.68;;;3.40;99.90;;;;;;5009946;28;20534;-51
2022/04/01 08:04:07;;;;;;;1.33;0.82;;;3.30;99.90;;;;;;4991724;28;20134;-52
2022/04/01 08:06:33;;;;;;;1.77;0.63;;;3.30;99.90;;;;;;4990190;28;20527;-50
2022/04/01 08:08:59;;;;;;;1.88;0.88;;;3.40;99.90;;;;;;4990210;28;20377;-53
2022/04/01 08:11:28;;;;;;;2.92;0.93;;;3.40;99.90;;;;;;4990098;28;20034;-50
2022/04/01 08:13:54;;;;;;;2.65;0.77;;;3.40;99.90;;;;;;4991895;28;20586;-51
2022/04/01 08:16:21;;;;;;;3.33;1.13;;;3.40;99.90;;;;;;4993239;28;20049;-50
2022/04/01 08:18:46;;;;;;;;;;;3.40;99.90;;;;;;4994348;28;20512;-49
2022/04/01 08:21:12;;;;;;;4.50;1.17;;;3.50;99.90;;;;;;4993656;28;20008;-50
2022/04/01 08:23:38;;;;;;;3.90;0.97;;;3.50;99.90;;;;;;4993901;28;20034;-50
2022/04/01 08:26:04;;;;;;;1.90;1.20;;;3.60;99.90;;;;;;4993245;28;20034;-49
2022/04/01 08:28:30;;;;;;;;;;;3.60;99.90;;;;;;4993799;28;20161;-50
2022/04/01 08:30:55;;;;;;;3.10;1.20;;;3.70;99.90;;;;;;4993780;28;20016;-49
2022/04/01 08:33:21;;;;;;;4.97;1.60;;;3.60;99.90;;;;;;4993878;28;20042;-50
2022/04/01 08:35:48;;;;;;;2.10;1.53;;;3.60;99.90;;;;;;4993347;28;20462;-52
2022/04/01 08:38:14;;;;;;;5.22;1.75;;;3.60;99.90;;;;;;4993489;28;20081;-49
2022/04/01 08:40:40;;;;;;;2.15;1.60;;;3.50;99.90;;;;;;4993369;28;20053;-52
2022/04/01 08:43:06;;;;;;;3.25;1.20;;;3.40;99.90;;;;;;4992940;28;20030;-49
2022/04/01 08:45:33;;;;;;;3.72;1.92;;;3.40;99.90;;;;;;4993133;28;20117;-50
2022/04/01 08:48:00;;;;;;;4.07;1.83;;;3.40;99.90;;;;;;4993365;28;20053;-50
2022/04/01 08:50:26;;;;;;;5.75;2.47;;;3.40;99.90;;;;;;4993291;28;20045;-49
2022/04/01 08:52:52;;;;;;;6.80;1.80;;;3.40;99.90;;;;;;4993264;28;20488;-49
2022/04/01 08:55:18;;;;;;;5.47;2.33;;;3.40;99.90;;;;;;4992662;28;20042;-49
2022/04/01 08:57:44;;;;;;;4.50;1.98;;;3.50;99.90;;;;;;4992952;28;20070;-50
2022/04/01 09:00:15;;;;;;;2.60;1.63;;;3.50;99.90;;;;;;4993347;28;20050;-49
2022/04/01 09:02:43;;;;;;;5.68;2.10;;;3.60;99.90;;;;;;4993135;28;20045;-49
2022/04/01 09:05:09;;;;;;;4.53;1.85;;;3.60;99.90;;;;;;4992481;28;20535;-49
2022/04/01 09:07:35;;;;;;;;;;;3.70;99.90;;;;;;4993661;28;20439;-49
2022/04/01 09:10:06;;;;;;;6.43;1.77;;;3.70;99.90;;;;;;4991322;28;19917;-49
2022/04/01 09:12:32;;;;;;;3.38;3.08;;;3.70;99.90;;;;;;4992963;28;20046;-49
2022/04/01 09:14:58;;;;;;;3.93;2.30;;;3.80;99.90;;;;;;4992655;28;20049;-49
2022/04/01 09:17:40;;;;;;;;;;;3.90;99.90;;;;;;4992977;28;20653;-52
2022/04/01 09:20:07;;;;;;;9.05;3.45;;;4.10;99.90;;;;;;4992871;28;19917;-52
2022/04/01 09:22:34;;;;;;;5.13;2.53;;;4.20;99.90;;;;;;4992261;28;20140;-49
2022/04/01 09:25:12;;;;;;;4.53;3.00;;;4.30;99.90;;;;;;4991505;28;20049;-52
2022/04/01 09:27:53;;;;;;;6.22;3.20;;;4.40;99.90;;;;;;4992773;28;20035;-51
2022/04/01 09:30:26;;;;;;;3.78;3.28;;;4.50;99.90;;;;;;4992736;28;20041;-50
2022/04/01 09:32:55;;;;;;;6.90;3.45;;;4.60;99.90;;;;;;4992203;28;20037;-52
2022/04/01 09:35:24;;;;;;;5.30;3.78;;;4.60;99.90;;;;;;4992128;28;20506;-50
2022/04/01 09:37:54;;;;;;;6.03;3.80;;;4.60;99.90;;;;;;4992353;28;20042;-49
2022/04/01 09:40:22;;;;;;;7.20;3.72;;;4.60;99.90;;;;;;4992521;28;20038;-49
2022/04/01 09:42:50;;;;;;;6.35;3.55;;;4.70;99.90;;;;;;4992379;28;20034;-49
2022/04/01 09:45:22;;;;;;;6.00;3.35;;;4.70;99.90;;;;;;4991738;28;20535;-49
2022/04/01 09:48:20;;;;;;;6.20;3.30;;;4.70;99.90;;;;;;4992364;28;20459;-49
2022/04/01 09:50:56;;;;;;;4.57;3.90;;;4.70;99.90;;;;;;4952890;28;20054;-48
2022/04/01 09:53:24;;;;;;;4.05;3.65;;;4.60;99.90;;;;;;4959443;28;20102;-51
2022/04/01 09:55:52;;;;;;;4.07;3.38;;;4.50;99.90;;;;;;4954422;28;20121;-50
2022/04/01 09:58:20;;;;;;;6.93;3.97;;;4.50;99.90;;;;;;4951198;29;20047;-51
2022/04/01 10:00:47;;;;;;;3.58;3.05;;;4.50;99.90;;;;;;4966161;28;20117;-53
2022/04/01 10:03:14;;;;;;;9.75;4.20;;;4.50;99.90;;;;;;4957744;28;20202;-51
2022/04/01 10:05:41;;;;;;;4.63;3.55;;;4.50;99.90;;;;;;4933882;29;20122;-49
2022/04/01 10:08:09;;;;;;;4.82;3.30;;;4.60;99.90;;;;;;4942333;28;20050;-51
2022/04/01 10:10:36;;;;;;;6.80;4.47;;;4.70;99.90;;;;;;4964569;28;20228;-50
2022/04/01 10:13:05;;;;;;;4.75;4.32;;;4.70;99.90;;;;;;4964557;28;20101;-50
2022/04/01 10:15:32;;;;;;;5.97;3.17;;;4.70;99.90;;;;;;4959884;28;20218;-52
2022/04/01 10:17:58;;;;;;;10.55;3.70;;;4.80;99.90;;;;;;4950537;28;20047;-50
2022/04/01 10:20:31;;;;;;;6.43;4.43;;;4.80;99.90;;;;;;4952612;28;20053;-49
2022/04/01 10:22:57;;;;;;;4.75;3.45;;;4.90;99.90;;;;;;4969067;28;20042;-49
2022/04/01 10:25:37;;;;;;;5.00;4.00;;;4.90;99.90;;;;;;4955682;28;20572;-49
2022/04/01 10:28:04;;;;;;;4.80;4.18;;;5.00;99.90;;;;;;5001447;28;20285;-49
2022/04/01 10:30:31;;;;;;;6.97;3.47;;;5.00;99.90;;;;;;5010260;28;20050;-49
2022/04/01 10:32:58;;;;;;;5.18;4.07;;;5.10;99.90;;;;;;5001393;28;20033;-49
2022/04/01 10:35:25;;;;;;;;;;;5.10;99.90;;;;;;4997935;28;20042;-50
2022/04/01 10:38:05;;;;;;;5.03;3.95;;;5.10;99.90;;;;;;4996783;28;19924;-49
2022/04/01 10:40:37;;;;;;;7.60;4.15;;;5.10;99.90;;;;;;5010914;28;20046;-49
2022/04/01 10:43:22;;;;;;;9.38;5.10;;;5.10;99.90;;;;;;4992060;28;20041;-49
2022/04/01 10:46:10;;;;;;;8.02;4.63;;;5.20;99.90;;;;;;4997103;28;20030;-49
2022/04/01 10:51:38;;;;;;;6.57;4.47;;;5.40;99.90;;;;;;5007250;28;20088;-49
2022/04/01 10:54:12;;;;;;;7.80;4.75;;;5.40;99.90;;;;;;4993293;28;20046;-49
2022/04/01 10:56:57;;;;;;;6.95;4.05;;;5.50;99.90;;;;;;5010165;28;20173;-51
2022/04/01 10:59:25;;;;;;;5.55;3.60;;;5.50;99.90;;;;;;4999905;28;20049;-49
2022/04/01 11:01:53;;;;;;;5.50;3.72;;;5.50;99.80;;;;;;5001029;28;20112;-50
2022/04/01 11:04:19;;;;;;;3.70;3.05;;;5.50;99.80;;;;;;4998007;28;20045;-51
2022/04/01 11:06:51;;;;;;;7.97;3.73;;;5.50;99.90;;;;;;5009052;28;20109;-51
2022/04/01 11:09:39;;;;;;;3.67;3.03;;;5.50;99.90;;;;;;4999305;28;20034;-49
2022/04/01 11:12:18;;;;;;;3.45;2.50;;;5.40;99.90;;;;;;4994859;28;20030;-49
2022/04/01 11:15:11;;;;;;;6.47;3.13;;;5.40;99.90;;;;;;5008549;28;20046;-49
2022/04/01 11:17:37;;;;;;;4.22;2.90;;;5.40;99.90;;;;;;4990473;28;20050;-50
2022/04/01 11:20:06;;;;;;;4.03;2.57;;;5.30;99.90;;;;;;4991366;28;20050;-51
2022/04/01 11:22:47;;;;;;;6.18;3.25;;;5.30;99.90;;;;;;4991293;28;20503;-50
2022/04/01 11:25:23;;;;;;;6.50;2.17;;;5.40;99.90;;;;;;4990786;28;20085;-50
2022/04/01 11:28:08;;;;;;;3.85;2.03;;;5.40;99.90;;;;;;4990619;28;20045;-51
2022/04/01 11:30:40;;;;;;;5.43;1.83;;;5.40;99.90;;;;;;4991247;28;20089;-50
2022/04/01 11:33:14;;;;;;;7.47;1.65;;;5.40;99.90;;;;;;4990758;28;20608;-50
2022/04/01 11:35:42;;;;;;;3.03;1.50;;;5.30;99.50;;;;;;4989891;28;20042;-49
2022/04/01 11:38:16;;;;;;;3.90;1.52;;;5.20;99.90;;;;;;4990454;28;20071;-53
2022/04/01 11:40:42;;;;;;;5.43;2.20;;;5.20;99.90;;;;;;4990208;28;20066;-51
2022/04/01 11:43:10;;;;;;;4.60;1.95;;;5.20;99.90;;;;;;4990762;28;20038;-49
2022/04/01 11:45:40;;;;;;;3.97;1.65;;;5.10;99.90;;;;;;4989492;28;20097;-49
2022/04/01 11:48:28;;;;;;;3.20;1.95;;;5.10;99.90;;;;;;4991148;28;20065;-49
2022/04/01 11:50:55;;;;;;;;;;;5.20;99.90;;;;;;4994503;28;20039;-52
2022/04/01 11:53:29;;;;;;;3.33;1.40;;;5.20;99.90;;;;;;4995043;28;19925;-51
2022/04/01 11:55:56;;;;;;;2.75;0.98;;;5.20;99.90;;;;;;4995270;28;20041;-49
2022/04/01 11:58:23;;;;;;;1.85;0.93;;;5.20;99.90;;;;;;4994417;28;20050;-50
2022/04/01 12:00:50;;;;;;;3.08;1.23;;;5.20;99.90;;;;;;4994421;28;20042;-52
2022/04/01 12:03:18;;;;;;;1.88;0.98;;;5.10;99.90;;;;;;4994522;28;20039;-52
2022/04/01 12:05:44;;;;;;;2.65;1.20;;;5.20;99.90;;;;;;4994120;28;20046;-50
2022/04/01 12:11:00;;;;;;;2.22;1.35;;;5.30;99.90;;;;;;4994282;28;20045;-53
2022/04/01 12:13:30;;;;;;;2.72;1.00;;;5.40;99.90;;;;;;4994238;28;20034;-51
2022/04/01 12:15:58;;;;;;;2.63;1.08;;;5.40;99.90;;;;;;4993649;28;20407;-53
2022/04/01 12:18:28;;;;;;;1.63;1.10;;;5.40;99.90;;;;;;4993857;28;20038;-51
2022/04/01 12:20:56;;;;;;;6.00;1.80;;;5.40;99.90;;;;;;4993986;28;20089;-49
2022/04/01 12:23:27;;;;;;;2.85;1.00;;;5.40;99.90;;;;;;4993995;28;20046;-49
2022/04/01 12:25:55;;;;;;;2.42;1.10;;;5.40;99.90;;;;;;4993526;28;20466;-50
2022/04/01 12:28:25;;;;;;;0.93;0.57;;;5.40;99.90;;;;;;4993771;28;20125;-49
2022/04/01 12:30:56;;;;;;;2.55;0.93;;;5.30;99.90;;;;;;4993526;28;20038;-50
2022/04/01 12:33:31;;;;;;;3.67;1.20;;;5.30;99.90;;;;;;4994010;28;20046;-50
2022/04/01 12:35:58;;;;;;;2.10;0.73;;;5.30;99.90;;;;;;4993253;28;20475;-49
2022/04/01 12:38:25;;;;;;;3.10;1.17;;;5.30;99.90;;;;;;4993826;28;20046;-50
2022/04/01 12:40:56;;;;;;;1.58;0.77;;;5.30;99.90;;;;;;4993547;28;20113;-51
2022/04/01 12:43:43;;;;;;;1.60;0.98;;;5.20;99.90;;;;;;4993335;28;20515;-50
2022/04/01 12:46:15;;;;;;;3.70;1.38;;;5.20;99.90;;;;;;4991543;28;20054;-49
2022/04/01 12:49:00;;;;;;;2.28;0.93;;;5.20;99.90;;;;;;4993646;28;20065;-49
2022/04/01 12:51:30;;;;;;;3.78;1.23;;;5.20;99.90;;;;;;4991514;28;20053;-49
2022/04/01 12:54:06;;;;;;;3.42;1.33;;;5.20;99.90;;;;;;4994650;28;20050;-51
2022/04/01 12:56:39;;;;;;;2.47;1.00;;;5.10;99.90;;;;;;4993866;28;20120;-49
2022/04/01 12:59:13;;;;;;;7.03;0.90;;;5.10;99.90;;;;;;4993623;28;20057;-49
2022/04/01 13:01:41;;;;;;;4.13;0.95;;;5.10;99.90;;;;;;4992858;28;20038;-49
2022/04/01 13:04:09;;;;;;;2.65;0.90;;;5.00;99.90;;;;;;4993243;28;20042;-49
2022/04/01 13:06:35;;;;;;;1.90;0.90;;;5.00;99.90;;;;;;4992602;28;20113;-49
2022/04/01 13:09:08;;;;;;;2.80;0.82;;;5.00;99.90;;;;;;4993040;28;20079;-50
2022/04/01 13:11:38;;;;;;;5.07;0.77;;;5.00;99.90;;;;;;4992843;28;20030;-49
2022/04/01 13:14:25;;;;;;;1.75;0.88;;;5.00;99.90;;;;;;4992869;28;20385;-49
2022/04/01 13:16:53;;;;;;;2.47;0.85;;;5.00;99.90;;;;;;4992520;28;20038;-50
2022/04/01 13:19:29;;;;;;;4.93;0.93;;;5.00;99.80;;;;;;4992924;28;20043;-49
2022/04/01 13:21:57;;;;;;;2.65;0.90;;;5.00;99.70;;;;;;4992672;28;20389;-53
2022/04/01 13:24:33;;;;;;;1.42;0.80;;;5.00;99.70;;;;;;4992657;28;20043;-51
2022/04/01 13:26:59;;;;;;;3.45;0.70;;;5.00;98.90;;;;;;4992660;28;20046;-50
2022/04/01 13:29:25;;;;;;;2.20;0.60;;;5.00;99.10;;;;;;4992865;28;20034;-49